Time;durP1;ratioP1;P1;durP2;ratioP2;P2;SDS_P1;SDS_P2;PMS_P1;PMS_P2;Temp;Humidity;BMP_temperature;BMP_pressure;BME280_temperature;BME280_humidity;BME280_pressure;Samples;Min_cycle;Max_cycle;Signal;HPM_P1;HPM_P2
2024/01/25 00:01:18;;;;;;;16.98;4.47;;;15.80;99.90;;;;;;7381850;19;20002;-74
2024/01/25 00:03:47;;;;;;;33.00;4.72;;;15.80;99.90;;;;;;7380882;19;20007;-73
2024/01/25 00:06:15;;;;;;;23.70;5.43;;;15.80;99.90;;;;;;7380706;19;20062;-74
2024/01/25 00:08:44;;;;;;;28.00;5.30;;;15.80;99.90;;;;;;7401891;19;20428;-75
2024/01/25 00:11:13;;;;;;;24.67;5.18;;;15.80;99.90;;;;;;7380215;19;20014;-73
2024/01/25 00:13:42;;;;;;;28.73;5.00;;;15.80;99.90;;;;;;7380747;19;20365;-74
2024/01/25 00:16:16;;;;;;;21.88;5.70;;;15.80;99.90;;;;;;7380132;19;20006;-74
2024/01/25 00:18:45;;;;;;;19.88;4.50;;;15.80;99.90;;;;;;7379708;19;20014;-74
2024/01/25 00:21:13;;;;;;;21.77;6.15;;;15.90;99.90;;;;;;7381239;19;20062;-74
2024/01/25 00:23:42;;;;;;;19.55;5.03;;;15.80;99.90;;;;;;7401700;19;20003;-74
2024/01/25 00:26:11;;;;;;;21.20;5.70;;;15.80;99.90;;;;;;7379899;19;20083;-74
2024/01/25 00:28:39;;;;;;;21.17;4.82;;;15.80;99.90;;;;;;7380267;19;20003;-75
2024/01/25 00:31:08;;;;;;;21.90;5.80;;;15.80;99.90;;;;;;7380191;19;20386;-74
2024/01/25 00:33:39;;;;;;;23.58;5.53;;;15.80;99.90;;;;;;7380467;19;20017;-75
2024/01/25 00:36:09;;;;;;;28.77;6.18;;;15.80;99.90;;;;;;7401123;19;20059;-74
2024/01/25 00:38:39;;;;;;;24.58;6.57;;;15.80;99.90;;;;;;7398767;19;20006;-74
2024/01/25 00:41:11;;;;;;;36.30;7.38;;;15.90;99.90;;;;;;7379068;19;20320;-74
2024/01/25 00:43:40;;;;;;;23.65;5.78;;;15.80;99.90;;;;;;7380177;19;20017;-74
2024/01/25 00:46:10;;;;;;;16.58;5.45;;;15.80;99.90;;;;;;7379512;19;20017;-74
2024/01/25 00:48:42;;;;;;;27.83;5.65;;;15.80;99.90;;;;;;7379280;19;20003;-75
2024/01/25 00:51:16;;;;;;;29.65;5.72;;;15.80;99.90;;;;;;7378375;19;20027;-75
2024/01/25 00:53:46;;;;;;;25.35;5.85;;;15.80;99.90;;;;;;7400989;19;20006;-75
2024/01/25 00:56:15;;;;;;;28.13;5.13;;;15.80;99.90;;;;;;7378698;19;20007;-74
2024/01/25 00:58:46;;;;;;;18.88;4.38;;;15.80;99.90;;;;;;7378963;19;20013;-76
2024/01/25 01:01:16;;;;;;;19.90;4.80;;;15.80;99.90;;;;;;7389933;19;20007;-75
2024/01/25 01:03:52;;;;;;;22.83;5.65;;;15.70;99.90;;;;;;7391771;19;20011;-74
2024/01/25 01:06:22;;;;;;;22.92;6.10;;;15.70;99.90;;;;;;7391687;19;20014;-74
2024/01/25 01:08:51;;;;;;;18.63;5.53;;;15.70;99.90;;;;;;7413971;19;20041;-75
2024/01/25 01:11:20;;;;;;;28.15;6.95;;;15.70;99.90;;;;;;7389815;19;20003;-75
2024/01/25 01:13:48;;;;;;;21.70;7.82;;;15.70;99.90;;;;;;7388661;19;20005;-75
2024/01/25 01:16:19;;;;;;;26.80;8.75;;;15.70;99.90;;;;;;7387033;19;20027;-75
2024/01/25 01:18:50;;;;;;;22.75;7.90;;;15.70;99.90;;;;;;7385264;19;19998;-75
2024/01/25 01:21:21;;;;;;;23.58;7.25;;;15.70;99.90;;;;;;7386667;19;20355;-74
2024/01/25 01:23:49;;;;;;;25.30;8.32;;;15.70;99.90;;;;;;7411323;19;20002;-74
2024/01/25 01:26:18;;;;;;;18.33;6.53;;;15.70;99.90;;;;;;7385815;19;20365;-74
2024/01/25 01:28:46;;;;;;;16.83;6.47;;;15.70;99.90;;;;;;7386291;19;19999;-74
2024/01/25 01:31:15;;;;;;;21.13;6.68;;;15.70;99.90;;;;;;7386236;19;20019;-75
2024/01/25 01:33:44;;;;;;;22.15;5.85;;;15.70;99.90;;;;;;7383837;19;20023;-74
2024/01/25 01:36:15;;;;;;;16.60;6.13;;;15.70;99.90;;;;;;7386033;19;20007;-74
2024/01/25 01:38:44;;;;;;;;;;;15.70;99.90;;;;;;7405064;19;20387;-75
2024/01/25 01:41:13;;;;;;;18.38;5.45;;;15.80;99.90;;;;;;7385607;19;19907;-74
2024/01/25 01:43:42;;;;;;;16.60;4.85;;;15.70;99.90;;;;;;7385715;19;20014;-74
2024/01/25 01:46:23;;;;;;;13.77;4.32;;;15.70;99.90;;;;;;7385480;19;20003;-74
2024/01/25 01:48:51;;;;;;;18.50;3.47;;;15.70;99.90;;;;;;7385725;19;20003;-74
2024/01/25 01:51:23;;;;;;;16.55;4.20;;;15.70;99.90;;;;;;7385950;19;20240;-73
2024/01/25 01:53:52;;;;;;;14.95;4.07;;;15.70;99.90;;;;;;7406788;19;20003;-73
2024/01/25 01:56:21;;;;;;;24.83;4.20;;;15.70;99.90;;;;;;7384705;19;19998;-74
2024/01/25 01:58:51;;;;;;;22.27;4.15;;;15.70;99.90;;;;;;7384275;19;20054;-74
2024/01/25 02:01:20;;;;;;;23.27;3.72;;;15.70;99.90;;;;;;7384877;19;20003;-73
2024/01/25 02:03:49;;;;;;;13.18;4.15;;;15.70;99.90;;;;;;7385787;19;20007;-74
2024/01/25 02:06:18;;;;;;;21.25;4.47;;;15.70;99.90;;;;;;7384701;19;20382;-73
2024/01/25 02:08:50;;;;;;;18.75;4.15;;;15.70;99.90;;;;;;7406435;19;20007;-74
2024/01/25 02:11:19;;;;;;;19.20;3.33;;;15.60;99.90;;;;;;7381971;19;20031;-74
2024/01/25 02:13:48;;;;;;;16.20;3.83;;;15.70;99.90;;;;;;7383391;19;20128;-74
2024/01/25 02:16:19;;;;;;;10.60;3.55;;;15.70;99.90;;;;;;7384397;19;20016;-74
2024/01/25 02:18:48;;;;;;;13.25;3.30;;;15.70;99.90;;;;;;7383459;19;20023;-74
2024/01/25 02:21:17;;;;;;;13.02;3.13;;;15.70;99.90;;;;;;7404618;19;20007;-74
2024/01/25 02:23:48;;;;;;;7.85;3.28;;;15.60;99.90;;;;;;7405756;19;20066;-74
2024/01/25 02:26:19;;;;;;;14.95;3.30;;;15.60;99.90;;;;;;7384122;19;20007;-75
2024/01/25 02:28:48;;;;;;;16.75;3.85;;;15.60;99.90;;;;;;7383991;19;20006;-74
2024/01/25 02:31:16;;;;;;;22.05;4.03;;;15.60;99.90;;;;;;7384164;19;20019;-74
2024/01/25 02:33:45;;;;;;;21.35;4.50;;;15.60;99.90;;;;;;7383832;19;20255;-73
2024/01/25 02:36:14;;;;;;;19.17;4.78;;;15.60;99.90;;;;;;7405445;19;20015;-74
2024/01/25 02:38:42;;;;;;;17.60;5.13;;;15.60;99.90;;;;;;7381764;19;20426;-74
2024/01/25 02:41:14;;;;;;;17.83;5.30;;;15.50;99.90;;;;;;7386958;19;20002;-74
2024/01/25 02:43:42;;;;;;;32.20;5.82;;;15.50;99.90;;;;;;7383551;19;20068;-74
2024/01/25 02:46:13;;;;;;;23.17;5.72;;;15.50;99.90;;;;;;7384279;19;20019;-74
2024/01/25 02:48:42;;;;;;;17.48;6.10;;;15.50;99.90;;;;;;7383950;19;19992;-73
2024/01/25 02:51:11;;;;;;;26.23;5.88;;;15.50;99.90;;;;;;7404800;19;20284;-73
2024/01/25 02:53:39;;;;;;;21.35;6.57;;;15.50;99.90;;;;;;7383077;19;20003;-75
2024/01/25 02:56:09;;;;;;;26.75;6.70;;;15.50;99.90;;;;;;7382838;19;20737;-74
2024/01/25 02:58:40;;;;;;;27.63;6.55;;;15.50;99.90;;;;;;7382960;19;20064;-74
2024/01/25 03:01:09;;;;;;;18.88;6.72;;;15.50;99.90;;;;;;7383800;19;20078;-74
2024/01/25 03:03:38;;;;;;;19.30;6.70;;;15.50;99.90;;;;;;7383109;19;20012;-74
2024/01/25 03:06:09;;;;;;;17.90;5.72;;;15.50;99.90;;;;;;7404445;19;20011;-74
2024/01/25 03:08:38;;;;;;;23.67;6.57;;;15.50;99.90;;;;;;7382622;19;20006;-73
2024/01/25 03:11:07;;;;;;;28.98;7.88;;;15.40;99.90;;;;;;7382307;19;20235;-74
2024/01/25 03:13:35;;;;;;;31.95;6.95;;;15.40;99.90;;;;;;7382335;19;20369;-74
2024/01/25 03:16:07;;;;;;;27.42;8.05;;;15.40;99.90;;;;;;7383891;19;20039;-73
2024/01/25 03:18:36;;;;;;;20.17;6.93;;;15.40;99.90;;;;;;7381940;19;20024;-74
2024/01/25 03:21:05;;;;;;;19.17;6.53;;;15.40;99.90;;;;;;7404579;19;20066;-74
2024/01/25 03:23:33;;;;;;;18.13;6.70;;;15.40;99.90;;;;;;7381239;19;20235;-74
2024/01/25 03:26:04;;;;;;;32.40;7.22;;;15.50;99.90;;;;;;7381975;19;20013;-75
2024/01/25 03:28:33;;;;;;;26.38;7.05;;;15.40;99.90;;;;;;7382784;19;20007;-75
2024/01/25 03:31:02;;;;;;;21.45;6.70;;;15.40;99.90;;;;;;7387739;19;20386;-75
2024/01/25 03:33:34;;;;;;;28.42;7.28;;;15.50;99.90;;;;;;7385917;19;20017;-75
2024/01/25 03:36:05;;;;;;;24.35;6.57;;;15.40;99.90;;;;;;7409371;19;20023;-75
2024/01/25 03:38:34;;;;;;;18.10;6.68;;;15.40;99.90;;;;;;7386401;19;20007;-75
2024/01/25 03:41:02;;;;;;;17.90;6.40;;;15.40;99.90;;;;;;7388776;19;20010;-75
2024/01/25 03:43:32;;;;;;;19.05;6.38;;;15.40;99.90;;;;;;7385246;19;20068;-75
2024/01/25 03:46:02;;;;;;;22.88;6.75;;;15.40;99.90;;;;;;7382548;19;20058;-74
2024/01/25 03:48:33;;;;;;;21.45;6.78;;;15.40;99.90;;;;;;7382165;19;20011;-74
2024/01/25 03:51:02;;;;;;;18.55;6.07;;;15.40;99.90;;;;;;7403731;19;20019;-74
2024/01/25 03:53:31;;;;;;;20.05;6.05;;;15.40;99.90;;;;;;7380799;19;20027;-74
2024/01/25 03:55:59;;;;;;;19.58;6.68;;;15.40;99.90;;;;;;7381470;19;20027;-74
2024/01/25 03:58:28;;;;;;;22.13;7.20;;;15.40;99.90;;;;;;7381754;19;20075;-74
2024/01/25 04:00:58;;;;;;;21.60;8.18;;;15.40;99.90;;;;;;7381206;19;20006;-74
2024/01/25 04:03:26;;;;;;;26.65;8.30;;;15.40;99.90;;;;;;7402246;19;20362;-74
2024/01/25 04:05:58;;;;;;;25.27;8.48;;;15.40;99.90;;;;;;7380930;19;20003;-74
2024/01/25 04:08:26;;;;;;;18.83;7.47;;;15.30;99.90;;;;;;7380528;19;20090;-74
2024/01/25 04:10:55;;;;;;;25.58;8.10;;;15.40;99.90;;;;;;7380798;19;20007;-74
2024/01/25 04:13:24;;;;;;;21.92;7.65;;;15.40;99.90;;;;;;7383896;19;20003;-75
2024/01/25 04:15:53;;;;;;;21.50;7.97;;;15.40;99.90;;;;;;7380776;19;20658;-75
2024/01/25 04:18:22;;;;;;;21.30;7.80;;;15.40;99.90;;;;;;7401840;19;20013;-75
2024/01/25 04:20:51;;;;;;;20.45;8.82;;;15.40;99.90;;;;;;7379905;19;20354;-75
2024/01/25 04:23:22;;;;;;;22.70;8.52;;;15.40;99.90;;;;;;7379922;19;20446;-75
2024/01/25 04:25:51;;;;;;;27.08;11.10;;;15.40;99.90;;;;;;7380611;19;20014;-75
2024/01/25 04:28:20;;;;;;;27.50;10.70;;;15.50;99.90;;;;;;7380110;19;19999;-75
2024/01/25 04:30:48;;;;;;;23.80;11.35;;;15.40;99.90;;;;;;7380524;19;19996;-75
2024/01/25 04:33:17;;;;;;;29.90;11.90;;;15.40;99.90;;;;;;7401946;19;20011;-75
2024/01/25 04:35:46;;;;;;;28.25;12.32;;;15.40;99.90;;;;;;7377236;19;20010;-74
2024/01/25 04:38:15;;;;;;;28.45;12.45;;;15.40;99.90;;;;;;7378604;19;20010;-74
2024/01/25 04:40:46;;;;;;;39.35;12.43;;;15.50;99.90;;;;;;7380035;19;20260;-74
2024/01/25 04:43:15;;;;;;;29.83;12.43;;;15.50;99.90;;;;;;7380333;19;20010;-75
2024/01/25 04:45:44;;;;;;;24.63;11.55;;;15.50;99.90;;;;;;7379730;19;20007;-75
2024/01/25 04:48:12;;;;;;;23.17;11.48;;;15.50;99.90;;;;;;7401637;19;20023;-75
2024/01/25 04:50:41;;;;;;;26.13;11.32;;;15.40;99.90;;;;;;7378867;19;20059;-75
2024/01/25 04:53:10;;;;;;;23.35;10.93;;;15.50;99.90;;;;;;7379514;19;20005;-75
2024/01/25 04:55:38;;;;;;;28.00;11.13;;;15.50;99.90;;;;;;7379791;19;20378;-75
2024/01/25 04:58:11;;;;;;;33.70;13.98;;;15.50;99.90;;;;;;7379045;19;20007;-75
2024/01/25 05:00:39;;;;;;;36.53;14.02;;;15.50;99.90;;;;;;7379951;19;20040;-75
2024/01/25 05:03:08;;;;;;;34.85;15.68;;;15.40;99.90;;;;;;7400687;19;20013;-75
2024/01/25 05:05:37;;;;;;;28.58;14.15;;;15.40;99.90;;;;;;7378731;19;19999;-74
2024/01/25 05:08:06;;;;;;;31.23;14.40;;;15.40;99.90;;;;;;7380519;19;20070;-74
2024/01/25 05:10:35;;;;;;;33.00;13.27;;;15.40;99.90;;;;;;7379298;19;20058;-74
2024/01/25 05:13:04;;;;;;;24.70;12.60;;;15.30;99.90;;;;;;7379139;19;20007;-75
2024/01/25 05:15:35;;;;;;;30.13;12.80;;;15.30;99.90;;;;;;7379084;19;20191;-74
2024/01/25 05:18:04;;;;;;;27.05;13.18;;;15.30;99.90;;;;;;7400277;19;20357;-75
2024/01/25 05:20:36;;;;;;;33.30;13.25;;;15.40;99.90;;;;;;7377979;19;20010;-75
2024/01/25 05:23:06;;;;;;;29.95;13.57;;;15.30;99.90;;;;;;7378897;19;19999;-73
2024/01/25 05:25:35;;;;;;;26.88;12.20;;;15.40;99.90;;;;;;7378581;19;20227;-74
2024/01/25 05:28:04;;;;;;;23.52;11.45;;;15.40;99.90;;;;;;7378831;19;20019;-74
2024/01/25 05:30:35;;;;;;;31.23;12.88;;;15.40;99.90;;;;;;7379450;19;20059;-74
2024/01/25 05:33:04;;;;;;;30.35;13.10;;;15.40;99.90;;;;;;7400201;19;20027;-74
2024/01/25 05:35:34;;;;;;;26.90;12.48;;;15.40;99.90;;;;;;7378083;19;20014;-74
2024/01/25 05:38:02;;;;;;;27.70;13.02;;;15.30;99.90;;;;;;7377542;19;20010;-74
2024/01/25 05:40:31;;;;;;;25.83;12.25;;;15.40;99.90;;;;;;7378588;19;20011;-74
2024/01/25 05:43:00;;;;;;;27.42;12.50;;;15.30;99.90;;;;;;7378061;19;20239;-75
2024/01/25 05:45:28;;;;;;;29.38;11.80;;;15.30;99.90;;;;;;7401746;19;20007;-75
2024/01/25 05:48:00;;;;;;;25.98;12.77;;;15.30;99.90;;;;;;7385136;19;20003;-75
2024/01/25 05:50:28;;;;;;;;;;;15.30;99.90;;;;;;7390447;19;20070;-75
2024/01/25 05:52:57;;;;;;;25.55;12.70;;;15.40;99.90;;;;;;7385587;19;20176;-75
2024/01/25 05:55:26;;;;;;;36.17;14.63;;;15.40;99.90;;;;;;7385319;19;20062;-75
2024/01/25 05:57:54;;;;;;;37.55;14.32;;;15.40;99.90;;;;;;7385420;19;20737;-75
2024/01/25 06:00:23;;;;;;;36.00;14.98;;;15.40;99.90;;;;;;7406717;19;20019;-74
2024/01/25 06:02:52;;;;;;;31.80;14.68;;;15.40;99.90;;;;;;7390042;19;20015;-74
2024/01/25 06:05:23;;;;;;;39.03;15.13;;;15.40;99.90;;;;;;7392574;19;20002;-74
2024/01/25 06:07:51;;;;;;;44.72;15.25;;;15.40;99.90;;;;;;7389462;19;20015;-73
2024/01/25 06:10:20;;;;;;;39.28;15.63;;;15.40;99.90;;;;;;7389310;19;20003;-74
2024/01/25 06:12:49;;;;;;;34.33;16.35;;;15.40;99.90;;;;;;7385574;19;20011;-74
2024/01/25 06:15:18;;;;;;;43.70;17.55;;;15.40;99.90;;;;;;7406259;19;20071;-74
2024/01/25 06:17:47;;;;;;;43.20;17.15;;;15.40;99.90;;;;;;7383715;19;20167;-74
2024/01/25 06:20:15;;;;;;;43.72;16.05;;;15.40;99.90;;;;;;7383401;19;20086;-74
2024/01/25 06:22:47;;;;;;;44.97;19.17;;;15.40;99.90;;;;;;7383663;19;20023;-74
2024/01/25 06:25:15;;;;;;;43.65;17.58;;;15.40;99.90;;;;;;7384349;19;20002;-74
2024/01/25 06:27:44;;;;;;;47.22;18.00;;;15.40;99.90;;;;;;7384779;19;20010;-75
2024/01/25 06:30:14;;;;;;;41.35;18.23;;;15.40;99.90;;;;;;7405789;19;20015;-76
2024/01/25 06:32:42;;;;;;;44.03;18.40;;;15.30;99.90;;;;;;7383140;19;20094;-75
2024/01/25 06:35:12;;;;;;;42.22;18.85;;;15.40;99.90;;;;;;7384270;19;19998;-75
2024/01/25 06:37:41;;;;;;;51.72;20.13;;;15.40;99.90;;;;;;7383352;19;20006;-75
2024/01/25 06:40:13;;;;;;;53.25;21.25;;;15.40;99.90;;;;;;7382321;19;20425;-75
2024/01/25 06:42:42;;;;;;;47.40;21.25;;;15.40;99.90;;;;;;7384267;19;20054;-75
2024/01/25 06:45:12;;;;;;;54.60;21.77;;;15.40;99.90;;;;;;7405522;19;20011;-74
2024/01/25 06:47:40;;;;;;;52.22;21.70;;;15.40;99.90;;;;;;7383003;19;20006;-75
2024/01/25 06:50:10;;;;;;;65.15;22.45;;;15.40;99.90;;;;;;7383549;19;20015;-75
2024/01/25 06:52:39;;;;;;;46.22;21.55;;;15.40;99.90;;;;;;7383348;19;20007;-75
2024/01/25 06:55:08;;;;;;;62.22;22.63;;;15.40;99.90;;;;;;7383577;19;20228;-75
2024/01/25 06:57:40;;;;;;;60.55;23.40;;;15.40;99.90;;;;;;7381842;19;20010;-75
2024/01/25 07:00:12;;;;;;;60.00;22.23;;;15.40;99.90;;;;;;7403560;19;20016;-75
2024/01/25 07:02:42;;;;;;;67.47;23.33;;;15.40;99.90;;;;;;7382850;19;20027;-75
2024/01/25 07:05:11;;;;;;;60.80;22.30;;;15.40;99.90;;;;;;7383072;19;19999;-75
2024/01/25 07:07:40;;;;;;;50.95;23.02;;;15.30;99.90;;;;;;7382933;19;20379;-74
2024/01/25 07:10:10;;;;;;;63.60;23.90;;;15.40;99.90;;;;;;7383485;19;20027;-74
2024/01/25 07:12:42;;;;;;;60.75;24.75;;;15.30;99.90;;;;;;7394049;19;20010;-74
2024/01/25 07:15:11;;;;;;;69.15;23.60;;;15.30;99.90;;;;;;7404555;19;20033;-74
2024/01/25 07:17:40;;;;;;;67.47;22.67;;;15.30;99.90;;;;;;7382437;19;20024;-74
2024/01/25 07:20:10;;;;;;;59.05;22.10;;;15.20;99.90;;;;;;7382206;19;20066;-74
2024/01/25 07:22:39;;;;;;;66.35;22.40;;;15.20;99.90;;;;;;7382366;19;20002;-74
2024/01/25 07:25:09;;;;;;;64.80;22.23;;;15.20;99.90;;;;;;7381248;19;20042;-75
2024/01/25 07:27:37;;;;;;;53.90;21.67;;;15.20;99.90;;;;;;7403759;19;20063;-75
2024/01/25 07:30:12;;;;;;;56.22;22.25;;;15.30;99.90;;;;;;7382002;19;20379;-75
2024/01/25 07:32:42;;;;;;;46.10;18.90;;;15.30;99.90;;;;;;7381839;19;20066;-74
2024/01/25 07:35:11;;;;;;;60.10;21.02;;;15.30;99.90;;;;;;7381631;19;20007;-75
2024/01/25 07:37:42;;;;;;;45.28;18.80;;;15.20;99.90;;;;;;7382196;19;20031;-74
2024/01/25 07:40:12;;;;;;;44.97;18.85;;;15.30;99.90;;;;;;7381466;19;20007;-74
2024/01/25 07:42:40;;;;;;;52.67;18.88;;;15.30;99.90;;;;;;7381470;19;20028;-74
2024/01/25 07:45:13;;;;;;;47.17;19.30;;;15.20;99.90;;;;;;7403111;19;20366;-75
2024/01/25 07:47:45;;;;;;;51.63;19.17;;;15.20;99.90;;;;;;7381410;19;20007;-74
2024/01/25 07:50:14;;;;;;;41.78;18.02;;;15.20;99.90;;;;;;7382194;19;20032;-75
2024/01/25 07:52:43;;;;;;;50.22;19.50;;;15.20;99.90;;;;;;7381930;19;20007;-75
2024/01/25 07:55:11;;;;;;;56.88;19.52;;;15.20;99.90;;;;;;7382654;19;20063;-75
2024/01/25 07:57:40;;;;;;;52.05;20.08;;;15.20;99.90;;;;;;7386321;19;20011;-74
2024/01/25 08:00:13;;;;;;;48.58;17.73;;;15.20;99.90;;;;;;7402763;19;20020;-73
2024/01/25 08:02:42;;;;;;;56.83;20.83;;;15.20;99.90;;;;;;7381640;19;20003;-72
2024/01/25 08:05:11;;;;;;;41.45;17.98;;;15.30;99.90;;;;;;7381301;19;20292;-72
2024/01/25 08:07:40;;;;;;;55.75;18.88;;;15.30;99.90;;;;;;7381879;19;20019;-73
2024/01/25 08:10:10;;;;;;;57.50;19.17;;;15.30;99.90;;;;;;7378158;19;20296;-73
2024/01/25 08:12:39;;;;;;;41.67;18.02;;;15.30;99.90;;;;;;7402410;19;20067;-73
2024/01/25 08:15:09;;;;;;;45.13;17.50;;;15.30;99.90;;;;;;7381365;19;20003;-71
2024/01/25 08:17:41;;;;;;;54.75;18.23;;;15.30;99.90;;;;;;7380988;19;20015;-72
2024/01/25 08:20:13;;;;;;;46.85;17.00;;;15.30;99.90;;;;;;7379121;19;20286;-71
2024/01/25 08:22:42;;;;;;;45.92;16.10;;;15.30;99.90;;;;;;7380927;19;20027;-71
2024/01/25 08:25:13;;;;;;;37.92;15.02;;;15.30;99.90;;;;;;7380684;19;20354;-71
2024/01/25 08:27:42;;;;;;;40.53;15.30;;;15.40;99.90;;;;;;7406755;19;20088;-71
2024/01/25 08:30:12;;;;;;;43.28;14.50;;;15.40;99.90;;;;;;7385224;19;20011;-71
2024/01/25 08:32:43;;;;;;;35.67;14.50;;;15.40;99.90;;;;;;7381691;19;20382;-71
2024/01/25 08:35:12;;;;;;;41.35;13.85;;;15.40;99.90;;;;;;7385237;19;19999;-72
2024/01/25 08:37:40;;;;;;;36.70;12.80;;;15.40;99.90;;;;;;7384845;19;20007;-71
2024/01/25 08:40:10;;;;;;;37.17;14.43;;;15.40;99.90;;;;;;7382698;19;19999;-71
2024/01/25 08:42:39;;;;;;;29.92;12.85;;;15.50;99.90;;;;;;7402330;19;20017;-71
2024/01/25 08:45:10;;;;;;;40.45;13.82;;;15.50;99.90;;;;;;7380178;19;20019;-71
2024/01/25 08:47:38;;;;;;;46.88;15.43;;;15.50;99.90;;;;;;7380463;19;20010;-74
2024/01/25 08:50:13;;;;;;;31.25;12.82;;;15.50;99.90;;;;;;7381006;19;20074;-74
2024/01/25 08:52:42;;;;;;;36.20;13.23;;;15.50;99.90;;;;;;7381152;19;20020;-74
2024/01/25 08:55:11;;;;;;;27.65;11.48;;;15.60;99.90;;;;;;7379889;19;20664;-74
2024/01/25 08:57:40;;;;;;;38.80;11.60;;;15.60;99.90;;;;;;7401501;19;20013;-73
2024/01/25 09:00:11;;;;;;;33.55;11.38;;;15.50;99.90;;;;;;7377938;19;20006;-73
2024/01/25 09:02:40;;;;;;;27.48;9.50;;;15.60;99.90;;;;;;7379904;19;20369;-73
2024/01/25 09:05:12;;;;;;;28.73;9.20;;;15.60;99.90;;;;;;7379883;19;20011;-73
2024/01/25 09:07:41;;;;;;;26.98;8.98;;;15.60;99.90;;;;;;7379335;19;20007;-73
2024/01/25 09:10:11;;;;;;;27.27;9.32;;;15.60;99.90;;;;;;7379353;19;20080;-73
2024/01/25 09:12:41;;;;;;;27.75;9.73;;;15.70;99.90;;;;;;7400549;19;20035;-72
2024/01/25 09:15:11;;;;;;;18.48;7.82;;;15.70;99.90;;;;;;7378606;19;20078;-73
2024/01/25 09:17:39;;;;;;;29.52;8.40;;;15.70;99.90;;;;;;7378162;19;20247;-74
2024/01/25 09:20:12;;;;;;;22.33;8.52;;;15.70;99.90;;;;;;7378759;19;20007;-72
2024/01/25 09:22:40;;;;;;;22.90;7.30;;;15.80;99.90;;;;;;7386250;19;20010;-72
2024/01/25 09:25:10;;;;;;;19.75;7.40;;;15.80;99.90;;;;;;7386520;19;20019;-72
2024/01/25 09:27:39;;;;;;;28.10;8.05;;;15.80;99.90;;;;;;7408035;19;20091;-73
2024/01/25 09:30:09;;;;;;;25.10;7.75;;;15.90;99.90;;;;;;7385012;19;20014;-72
2024/01/25 09:32:38;;;;;;;18.93;6.60;;;16.00;99.90;;;;;;7385515;19;20271;-71
2024/01/25 09:35:08;;;;;;;24.27;7.15;;;16.00;99.90;;;;;;7386282;19;20020;-72
2024/01/25 09:37:39;;;;;;;23.15;6.32;;;16.00;99.90;;;;;;7384809;19;20009;-71
2024/01/25 09:40:16;;;;;;;30.10;6.82;;;16.10;99.90;;;;;;7384350;19;20023;-71
2024/01/25 09:42:45;;;;;;;17.30;5.72;;;16.10;99.90;;;;;;7407797;19;20006;-74
2024/01/25 09:45:19;;;;;;;24.73;5.78;;;16.10;99.90;;;;;;7384782;19;20062;-73
2024/01/25 09:47:47;;;;;;;24.00;4.78;;;16.20;99.90;;;;;;7384537;19;20369;-73
2024/01/25 09:50:16;;;;;;;13.63;4.70;;;16.20;99.90;;;;;;7385705;19;20003;-74
2024/01/25 09:52:56;;;;;;;20.25;4.57;;;16.20;99.90;;;;;;7384696;19;20006;-74
2024/01/25 09:55:28;;;;;;;16.08;4.75;;;16.20;99.90;;;;;;7384936;19;20006;-73
2024/01/25 09:57:57;;;;;;;18.55;4.97;;;16.20;99.90;;;;;;7385303;19;20010;-72
2024/01/25 10:00:26;;;;;;;16.63;4.60;;;16.20;99.90;;;;;;7404814;19;20003;-72
2024/01/25 10:02:56;;;;;;;19.15;5.43;;;16.10;99.90;;;;;;7384033;19;20010;-72
2024/01/25 10:05:24;;;;;;;27.58;5.20;;;16.20;99.90;;;;;;7383446;19;19999;-72
2024/01/25 10:08:00;;;;;;;21.58;4.72;;;16.20;99.90;;;;;;7384034;19;20020;-74
2024/01/25 10:10:29;;;;;;;16.15;4.75;;;16.20;99.90;;;;;;7382345;19;20010;-72
2024/01/25 10:12:58;;;;;;;24.20;5.32;;;16.20;99.90;;;;;;7384415;19;20007;-71
2024/01/25 10:15:27;;;;;;;19.30;4.82;;;16.10;99.90;;;;;;7405674;19;20003;-71
2024/01/25 10:17:55;;;;;;;22.35;5.65;;;16.10;99.90;;;;;;7383494;19;20500;-70
2024/01/25 10:20:25;;;;;;;25.27;5.55;;;16.10;99.90;;;;;;7383520;19;20020;-72
2024/01/25 10:22:56;;;;;;;14.95;5.10;;;16.20;99.90;;;;;;7383855;19;20011;-70
2024/01/25 10:25:25;;;;;;;29.48;5.43;;;16.20;99.90;;;;;;7384289;19;20010;-71
2024/01/25 10:27:56;;;;;;;20.67;5.38;;;16.20;99.90;;;;;;7405249;19;20247;-71
2024/01/25 10:30:26;;;;;;;20.77;4.70;;;16.30;99.90;;;;;;7383205;19;20010;-70
2024/01/25 10:32:55;;;;;;;22.30;5.75;;;16.30;99.90;;;;;;7380631;19;20418;-71
2024/01/25 10:35:24;;;;;;;20.65;5.07;;;16.30;99.90;;;;;;7383548;19;20011;-71
2024/01/25 10:37:55;;;;;;;17.75;4.60;;;16.30;99.90;;;;;;7382928;19;20006;-71
2024/01/25 10:40:25;;;;;;;19.05;4.60;;;16.30;99.90;;;;;;7383349;19;20074;-71
2024/01/25 10:42:54;;;;;;;21.08;5.07;;;16.20;99.90;;;;;;7405377;19;20259;-71
2024/01/25 10:45:22;;;;;;;25.77;5.40;;;16.30;99.90;;;;;;7386372;19;20016;-74
2024/01/25 10:47:51;;;;;;;21.27;5.15;;;16.20;99.90;;;;;;7387522;19;20013;-74
2024/01/25 10:50:20;;;;;;;24.58;5.75;;;16.30;99.90;;;;;;7386828;19;20027;-74
2024/01/25 10:52:50;;;;;;;19.10;5.03;;;16.30;99.90;;;;;;7385917;19;20019;-73
2024/01/25 10:55:21;;;;;;;19.23;5.40;;;16.30;99.90;;;;;;7385990;19;20070;-73
2024/01/25 10:57:50;;;;;;;20.02;5.53;;;16.30;99.90;;;;;;7408573;19;20006;-73
2024/01/25 11:00:19;;;;;;;16.52;4.72;;;16.30;99.90;;;;;;7383673;19;20061;-72
2024/01/25 11:02:49;;;;;;;24.98;4.93;;;16.30;99.90;;;;;;7384245;19;20007;-73
2024/01/25 11:05:20;;;;;;;13.05;5.03;;;16.10;99.90;;;;;;7384675;19;20028;-74
2024/01/25 11:07:50;;;;;;;22.70;5.80;;;16.20;99.90;;;;;;7384247;19;20016;-73
2024/01/25 11:10:23;;;;;;;25.40;6.30;;;16.20;99.90;;;;;;7383433;19;20023;-73
2024/01/25 11:12:58;;;;;;;20.95;5.45;;;16.30;99.90;;;;;;7402072;19;20010;-73
2024/01/25 11:15:33;;;;;;;17.95;4.93;;;16.30;99.90;;;;;;7379507;19;20003;-72
2024/01/25 11:18:03;;;;;;;23.50;5.20;;;16.40;99.90;;;;;;7380638;19;20003;-73
2024/01/25 11:20:33;;;;;;;21.15;5.40;;;16.40;99.90;;;;;;7380610;19;20010;-74
2024/01/25 11:23:04;;;;;;;12.40;4.40;;;16.40;99.90;;;;;;7379829;19;20020;-73
2024/01/25 11:25:35;;;;;;;;;;;16.50;99.90;;;;;;7381009;19;20023;-73
2024/01/25 11:28:07;;;;;;;15.32;4.68;;;16.50;99.90;;;;;;7391650;19;19915;-73
2024/01/25 11:30:37;;;;;;;27.85;5.15;;;16.50;99.90;;;;;;7401221;19;20031;-74
2024/01/25 11:33:08;;;;;;;18.92;4.90;;;16.60;99.90;;;;;;7380108;19;20024;-73
2024/01/25 11:35:37;;;;;;;;;;;16.60;99.90;;;;;;7380306;19;20005;-73
2024/01/25 11:38:06;;;;;;;17.52;4.28;;;16.70;99.90;;;;;;7377812;19;19915;-73
2024/01/25 11:40:38;;;;;;;14.40;4.18;;;16.70;99.90;;;;;;7380401;19;20441;-73
2024/01/25 11:43:12;;;;;;;11.88;4.07;;;16.70;99.90;;;;;;7393408;19;20010;-74
2024/01/25 11:45:42;;;;;;;16.40;4.13;;;16.80;99.90;;;;;;7402222;19;20016;-73
2024/01/25 11:48:11;;;;;;;13.07;4.75;;;16.80;99.90;;;;;;7379998;19;20006;-74
2024/01/25 11:50:40;;;;;;;15.32;4.97;;;16.80;99.90;;;;;;7381693;19;20070;-74
2024/01/25 11:53:09;;;;;;;16.00;4.07;;;16.80;99.90;;;;;;7381724;19;20232;-73
2024/01/25 11:55:42;;;;;;;14.98;4.00;;;16.90;99.90;;;;;;7383306;19;20017;-75
2024/01/25 11:58:11;;;;;;;15.73;3.85;;;16.90;99.90;;;;;;7381588;19;20013;-73
2024/01/25 12:00:40;;;;;;;15.48;4.05;;;17.00;99.90;;;;;;7401526;19;20006;-72
2024/01/25 12:03:09;;;;;;;13.32;4.03;;;17.00;99.90;;;;;;7380020;19;20019;-72
2024/01/25 12:05:38;;;;;;;13.48;3.83;;;17.00;99.90;;;;;;7380004;19;20035;-72
2024/01/25 12:08:12;;;;;;;14.30;3.65;;;17.00;99.90;;;;;;7380315;19;20232;-72
2024/01/25 12:10:44;;;;;;;17.55;3.97;;;17.00;99.90;;;;;;7381468;19;20082;-73
2024/01/25 12:13:12;;;;;;;14.52;3.53;;;17.10;99.90;;;;;;7381694;19;20014;-72
2024/01/25 12:15:43;;;;;;;8.98;3.33;;;17.10;99.90;;;;;;7402405;19;20056;-73
2024/01/25 12:18:12;;;;;;;13.02;3.88;;;17.10;99.90;;;;;;7380270;19;20304;-73
2024/01/25 12:20:41;;;;;;;15.63;3.80;;;17.00;99.90;;;;;;7380289;19;20002;-73
2024/01/25 12:23:11;;;;;;;12.52;3.58;;;17.00;99.90;;;;;;7380060;19;20015;-73
2024/01/25 12:25:44;;;;;;;16.23;2.95;;;17.00;99.90;;;;;;7379905;19;20313;-73
2024/01/25 12:28:13;;;;;;;9.88;3.30;;;17.00;99.90;;;;;;7379342;19;20414;-73
2024/01/25 12:30:42;;;;;;;15.10;3.28;;;17.00;99.90;;;;;;7400360;19;20009;-72
2024/01/25 12:33:11;;;;;;;12.05;2.90;;;17.00;99.90;;;;;;7379172;19;20070;-74
2024/01/25 12:35:39;;;;;;;15.02;3.00;;;17.00;99.90;;;;;;7379100;19;20019;-74
2024/01/25 12:38:10;;;;;;;11.88;3.00;;;17.00;99.90;;;;;;7380537;19;20019;-76
2024/01/25 12:40:40;;;;;;;12.93;3.20;;;16.90;99.90;;;;;;7379688;19;20006;-74
2024/01/25 12:43:11;;;;;;;18.30;4.82;;;17.00;99.90;;;;;;7379514;19;20363;-72
2024/01/25 12:45:40;;;;;;;13.73;3.50;;;17.00;99.90;;;;;;7401315;19;20014;-74
2024/01/25 12:48:09;;;;;;;11.43;2.88;;;17.00;99.90;;;;;;7378632;19;20369;-73